Time;durP1;ratioP1;P1;durP2;ratioP2;P2;SDS_P1;SDS_P2;PMS_P1;PMS_P2;Temp;Humidity;BMP_temperature;BMP_pressure;BME280_temperature;BME280_humidity;BME280_pressure;Samples;Min_cycle;Max_cycle;Signal;HPM_P1;HPM_P2
2023/09/10 00:01:18;;;;;;;10.30;8.50;;;;;;;;;;4994057;28;20531;-69
2023/09/10 00:03:44;;;;;;;7.97;6.10;;;;;;;;;;4994514;28;20464;-69
2023/09/10 00:06:10;;;;;;;12.33;7.07;;;;;;;;;;4994495;28;20466;-70
2023/09/10 00:08:36;;;;;;;8.50;6.30;;;;;;;;;;4995223;28;20495;-69
2023/09/10 00:11:02;;;;;;;10.63;7.53;;;;;;;;;;4994810;28;20906;-71
2023/09/10 00:13:29;;;;;;;7.97;7.17;;;;;;;;;;4993647;28;20428;-71
2023/09/10 00:15:55;;;;;;;8.77;7.30;;;;;;;;;;4994694;28;20455;-70
2023/09/10 00:18:21;;;;;;;10.60;7.13;;;;;;;;;;4994378;28;20406;-70
2023/09/10 00:20:48;;;;;;;8.07;6.63;;;;;;;;;;4994211;28;20443;-70
2023/09/10 00:23:14;;;;;;;8.07;7.27;;;;;;;;;;4995616;28;20879;-71
2023/09/10 00:25:40;;;;;;;7.23;6.53;;;;;;;;;;4994717;28;20491;-70
2023/09/10 00:28:06;;;;;;;10.60;6.47;;;;;;;;;;4994215;28;20848;-70
2023/09/10 00:30:32;;;;;;;9.57;6.83;;;;;;;;;;4993451;28;21166;-70
2023/09/10 00:32:58;;;;;;;7.47;6.50;;;;;;;;;;4994522;28;20499;-71
2023/09/10 00:35:24;;;;;;;8.10;7.30;;;;;;;;;;4994249;28;20418;-70
2023/09/10 00:37:50;;;;;;;10.80;5.87;;;;;;;;;;4994289;28;20936;-70
2023/09/10 00:40:16;;;;;;;10.10;6.43;;;;;;;;;;4992831;28;20507;-71
2023/09/10 00:42:42;;;;;;;10.67;5.60;;;;;;;;;;4994350;28;20412;-69
2023/09/10 00:45:10;;;;;;;9.90;7.77;;;;;;;;;;4993933;28;20467;-70
2023/09/10 00:47:36;;;;;;;23.73;7.20;;;;;;;;;;4993804;28;20431;-69
2023/09/10 00:50:03;;;;;;;9.97;6.13;;;;;;;;;;4993795;28;20416;-69
2023/09/10 00:52:29;;;;;;;7.60;6.60;;;;;;;;;;4994050;28;20459;-69
2023/09/10 00:54:56;;;;;;;9.73;7.30;;;;;;;;;;4994744;28;20408;-70
2023/09/10 00:57:22;;;;;;;6.13;5.53;;;;;;;;;;4993666;28;20959;-69
2023/09/10 00:59:48;;;;;;;8.93;6.47;;;;;;;;;;4993622;28;20412;-69
2023/09/10 01:02:15;;;;;;;10.90;6.30;;;;;;;;;;4993390;28;20584;-69
2023/09/10 01:04:41;;;;;;;10.70;7.07;;;;;;;;;;4993478;28;20470;-69
2023/09/10 01:07:07;;;;;;;9.07;7.60;;;;;;;;;;4993219;28;20451;-70
2023/09/10 01:09:33;;;;;;;11.20;7.73;;;;;;;;;;4993445;28;20412;-70
2023/09/10 01:12:08;;;;;;;12.40;7.63;;;;;;;;;;4993184;28;20492;-70
2023/09/10 01:14:42;;;;;;;7.40;6.60;;;;;;;;;;4993518;28;20415;-70
2023/09/10 01:17:14;;;;;;;8.37;7.57;;;;;;;;;;4994230;28;21050;-70
2023/09/10 01:19:49;;;;;;;10.73;8.70;;;;;;;;;;4994666;28;20411;-70
2023/09/10 01:22:37;;;;;;;14.63;8.73;;;;;;;;;;4993877;28;20488;-69
2023/09/10 01:25:03;;;;;;;8.60;7.70;;;;;;;;;;4994085;28;20491;-70
2023/09/10 01:27:29;;;;;;;8.80;7.90;;;;;;;;;;4994427;28;20428;-70
2023/09/10 01:29:55;;;;;;;12.17;8.73;;;;;;;;;;4994170;28;20431;-70
2023/09/10 01:32:21;;;;;;;9.37;8.40;;;;;;;;;;4993691;28;20786;-70
2023/09/10 01:35:00;;;;;;;8.40;7.00;;;;;;;;;;4994044;28;20434;-70
2023/09/10 01:37:31;;;;;;;9.80;8.80;;;;;;;;;;4993941;28;20495;-69
2023/09/10 01:39:58;;;;;;;10.37;8.20;;;;;;;;;;4993624;28;20502;-69
2023/09/10 01:42:25;;;;;;;9.40;6.80;;;;;;;;;;4993196;28;20822;-69
2023/09/10 01:44:52;;;;;;;10.77;7.53;;;;;;;;;;4992985;28;20467;-69
2023/09/10 01:47:18;;;;;;;10.77;7.80;;;;;;;;;;4993736;28;20438;-69
2023/09/10 01:49:44;;;;;;;9.33;7.20;;;;;;;;;;4993616;28;20416;-69
2023/09/10 01:52:10;;;;;;;9.77;8.10;;;;;;;;;;4993556;28;20420;-69
2023/09/10 01:54:36;;;;;;;9.00;8.10;;;;;;;;;;4993715;28;20813;-70
2023/09/10 01:57:02;;;;;;;8.67;6.50;;;;;;;;;;4993640;28;20994;-69
2023/09/10 01:59:28;;;;;;;10.90;8.57;;;;;;;;;;4993763;28;20787;-70
2023/09/10 02:01:54;;;;;;;10.40;8.40;;;;;;;;;;4993270;28;20458;-70
2023/09/10 02:04:20;;;;;;;10.57;8.13;;;;;;;;;;4993451;28;20518;-69
2023/09/10 02:06:45;;;;;;;9.90;8.33;;;;;;;;;;4991348;28;20451;-70
2023/09/10 02:09:11;;;;;;;9.80;8.80;;;;;;;;;;4992907;28;20415;-69
2023/09/10 02:11:37;;;;;;;9.97;8.03;;;;;;;;;;4993374;28;20412;-69
2023/09/10 02:14:03;;;;;;;8.43;7.07;;;;;;;;;;4993626;28;20411;-69
2023/09/10 02:16:29;;;;;;;10.00;9.00;;;;;;;;;;4992605;28;20447;-69
2023/09/10 02:18:55;;;;;;;9.40;8.40;;;;;;;;;;4992566;28;20525;-69
2023/09/10 02:21:21;;;;;;;9.90;8.90;;;;;;;;;;4992159;28;20416;-69
2023/09/10 02:23:47;;;;;;;9.70;8.77;;;;;;;;;;4992411;28;20994;-69
2023/09/10 02:26:15;;;;;;;11.80;8.10;;;;;;;;;;4992524;28;20935;-69
2023/09/10 02:28:41;;;;;;;11.60;8.87;;;;;;;;;;4992630;28;20416;-69
2023/09/10 02:31:07;;;;;;;9.57;8.60;;;;;;;;;;4992079;28;20412;-69
2023/09/10 02:33:34;;;;;;;10.03;7.97;;;;;;;;;;4992201;28;20896;-69
2023/09/10 02:36:00;;;;;;;11.80;8.93;;;;;;;;;;4992283;28;20412;-69
2023/09/10 02:38:27;;;;;;;14.30;9.00;;;;;;;;;;4992419;28;20478;-69
2023/09/10 02:40:53;;;;;;;15.73;8.47;;;;;;;;;;4992587;28;20904;-69
2023/09/10 02:43:19;;;;;;;11.57;8.67;;;;;;;;;;4991310;28;20464;-70
2023/09/10 02:45:45;;;;;;;8.73;7.70;;;;;;;;;;4992609;28;20414;-69
2023/09/10 02:48:10;;;;;;;11.07;10.03;;;;;;;;;;4992320;28;20440;-70
2023/09/10 02:50:36;;;;;;;9.77;8.77;;;;;;;;;;4991764;28;20424;-69
2023/09/10 02:53:02;;;;;;;9.93;8.90;;;;;;;;;;4992516;28;20447;-69
2023/09/10 02:55:29;;;;;;;9.67;8.77;;;;;;;;;;4995890;28;20415;-69
2023/09/10 02:57:54;;;;;;;12.40;8.97;;;;;;;;;;4995797;28;20706;-69
2023/09/10 03:00:25;;;;;;;9.67;8.73;;;;;;;;;;4995440;28;20522;-69
2023/09/10 03:02:54;;;;;;;9.90;8.90;;;;;;;;;;4996153;28;20975;-73
2023/09/10 03:05:20;;;;;;;9.80;8.80;;;;;;;;;;4995559;28;20888;-69
2023/09/10 03:07:47;;;;;;;11.13;9.40;;;;;;;;;;4993938;28;20502;-70
2023/09/10 03:10:13;;;;;;;10.33;9.10;;;;;;;;;;4995151;28;20427;-68
2023/09/10 03:12:39;;;;;;;11.33;10.33;;;;;;;;;;4995402;28;20493;-68
2023/09/10 03:15:05;;;;;;;10.97;9.90;;;;;;;;;;4995349;28;20420;-69
2023/09/10 03:17:31;;;;;;;11.00;9.57;;;;;;;;;;4995235;28;20844;-69
2023/09/10 03:19:57;;;;;;;10.10;8.80;;;;;;;;;;4995167;28;20447;-70
2023/09/10 03:22:23;;;;;;;11.87;9.47;;;;;;;;;;4995001;28;20407;-70
2023/09/10 03:24:49;;;;;;;10.20;9.20;;;;;;;;;;4993774;28;21069;-70
2023/09/10 03:27:15;;;;;;;10.60;9.20;;;;;;;;;;4995198;28;20427;-69
2023/09/10 03:29:42;;;;;;;11.77;10.50;;;;;;;;;;4995070;28;20415;-69
2023/09/10 03:32:08;;;;;;;10.77;8.67;;;;;;;;;;4994768;28;20459;-69
2023/09/10 03:34:34;;;;;;;10.37;8.80;;;;;;;;;;4995174;28;20424;-69
2023/09/10 03:37:00;;;;;;;11.90;9.57;;;;;;;;;;4994942;28;20442;-69
2023/09/10 03:39:27;;;;;;;14.37;9.70;;;;;;;;;;4994961;28;20412;-69
2023/09/10 03:41:53;;;;;;;11.10;9.87;;;;;;;;;;4994539;28;20415;-69
2023/09/10 03:44:20;;;;;;;12.03;9.50;;;;;;;;;;4994689;28;20569;-69
2023/09/10 03:46:46;;;;;;;13.60;10.63;;;;;;;;;;4994882;28;20514;-69
2023/09/10 03:49:12;;;;;;;11.23;9.80;;;;;;;;;;4994697;28;20563;-69
2023/09/10 03:51:38;;;;;;;10.93;9.30;;;;;;;;;;4994378;28;20418;-69
2023/09/10 03:54:04;;;;;;;11.73;9.70;;;;;;;;;;4994636;28;20854;-68
2023/09/10 03:56:30;;;;;;;13.83;9.37;;;;;;;;;;4995117;28;20436;-69
2023/09/10 03:58:56;;;;;;;9.27;8.23;;;;;;;;;;4994642;28;20760;-69
2023/09/10 04:01:22;;;;;;;15.40;9.00;;;;;;;;;;4994401;28;20412;-70
2023/09/10 04:03:48;;;;;;;10.83;9.70;;;;;;;;;;4994430;28;20463;-70
2023/09/10 04:06:14;;;;;;;10.60;9.50;;;;;;;;;;4993209;28;20812;-69
2023/09/10 04:08:40;;;;;;;10.37;9.27;;;;;;;;;;4994390;28;20408;-69
2023/09/10 04:11:08;;;;;;;9.80;7.90;;;;;;;;;;4994044;28;20736;-69
2023/09/10 04:13:34;;;;;;;10.40;9.20;;;;;;;;;;4994638;28;20411;-70
2023/09/10 04:16:00;;;;;;;12.13;10.13;;;;;;;;;;4994203;28;20466;-69
2023/09/10 04:18:26;;;;;;;9.83;8.97;;;;;;;;;;4994233;28;20416;-69
2023/09/10 04:20:52;;;;;;;11.47;10.37;;;;;;;;;;4993916;28;20758;-69
2023/09/10 04:23:18;;;;;;;12.73;10.73;;;;;;;;;;4994080;28;20975;-69
2023/09/10 04:25:44;;;;;;;11.37;8.93;;;;;;;;;;4994045;28;20420;-69
2023/09/10 04:28:10;;;;;;;10.93;9.87;;;;;;;;;;4993990;28;20498;-68
2023/09/10 04:30:36;;;;;;;10.80;9.37;;;;;;;;;;4993755;28;20416;-69
2023/09/10 04:33:02;;;;;;;10.27;8.87;;;;;;;;;;4994196;28;20404;-68
2023/09/10 04:35:28;;;;;;;13.00;9.67;;;;;;;;;;4993926;28;20439;-69
2023/09/10 04:37:54;;;;;;;10.40;9.40;;;;;;;;;;4993738;28;20428;-69
2023/09/10 04:40:20;;;;;;;11.47;10.37;;;;;;;;;;4975997;28;20505;-69
2023/09/10 04:42:46;;;;;;;10.50;7.33;;;;;;;;;;4974453;28;20448;-70
2023/09/10 04:45:12;;;;;;;9.43;8.13;;;;;;;;;;4974294;28;20465;-69
2023/09/10 04:47:38;;;;;;;10.70;9.60;;;;;;;;;;4974161;28;20432;-69
2023/09/10 04:50:05;;;;;;;14.53;9.70;;;;;;;;;;4974258;28;20415;-70
2023/09/10 04:52:31;;;;;;;10.03;8.73;;;;;;;;;;4973989;28;20614;-70
2023/09/10 04:54:57;;;;;;;11.03;9.10;;;;;;;;;;4974209;28;20408;-70
2023/09/10 04:57:23;;;;;;;10.77;9.73;;;;;;;;;;4973921;28;20433;-70
2023/09/10 04:59:49;;;;;;;9.73;8.30;;;;;;;;;;4973857;28;20492;-71
2023/09/10 05:02:15;;;;;;;11.07;9.77;;;;;;;;;;4973599;28;20453;-70
2023/09/10 05:04:41;;;;;;;11.13;10.10;;;;;;;;;;4973860;28;20494;-71
2023/09/10 05:07:07;;;;;;;10.77;9.77;;;;;;;;;;4973504;28;20452;-71
2023/09/10 05:09:33;;;;;;;9.97;8.97;;;;;;;;;;4973599;28;20496;-71
2023/09/10 05:11:59;;;;;;;11.47;10.03;;;;;;;;;;4973375;28;20476;-71
2023/09/10 05:14:28;;;;;;;9.20;8.30;;;;;;;;;;4973693;28;20413;-72
2023/09/10 05:16:54;;;;;;;10.90;9.87;;;;;;;;;;4973467;28;20443;-71
2023/09/10 05:19:23;;;;;;;12.37;9.13;;;;;;;;;;4973724;28;20416;-71
2023/09/10 05:21:49;;;;;;;20.00;10.57;;;;;;;;;;4973367;28;20421;-71
2023/09/10 05:24:15;;;;;;;12.37;8.83;;;;;;;;;;4973868;28;20926;-71
2023/09/10 05:26:41;;;;;;;12.23;9.37;;;;;;;;;;4973563;28;20436;-71
2023/09/10 05:29:07;;;;;;;17.40;10.90;;;;;;;;;;4973435;28;20956;-71
2023/09/10 05:31:33;;;;;;;14.20;10.20;;;;;;;;;;4973235;28;20455;-71
2023/09/10 05:33:59;;;;;;;12.43;10.90;;;;;;;;;;4973367;28;20428;-71
2023/09/10 05:36:26;;;;;;;9.80;8.80;;;;;;;;;;4973181;28;20443;-72
2023/09/10 05:38:52;;;;;;;9.90;8.57;;;;;;;;;;4973287;28;20500;-71
2023/09/10 05:41:18;;;;;;;7.87;7.07;;;;;;;;;;4973373;28;20500;-71
2023/09/10 05:43:44;;;;;;;9.03;8.13;;;;;;;;;;4973342;28;21039;-72
2023/09/10 05:46:10;;;;;;;10.70;8.43;;;;;;;;;;4973445;28;20745;-72
2023/09/10 05:48:36;;;;;;;8.47;7.57;;;;;;;;;;4973176;28;20822;-72
2023/09/10 05:51:02;;;;;;;9.13;6.17;;;;;;;;;;4972579;28;20409;-72
2023/09/10 05:53:28;;;;;;;7.20;6.20;;;;;;;;;;4972925;28;20413;-72
2023/09/10 05:55:54;;;;;;;7.90;7.10;;;;;;;;;;4973233;28;20828;-72
2023/09/10 05:58:20;;;;;;;7.40;6.70;;;;;;;;;;4972919;28;20935;-71
2023/09/10 06:00:46;;;;;;;10.70;8.70;;;;;;;;;;4972522;28;20413;-71
2023/09/10 06:03:13;;;;;;;7.00;6.30;;;;;;;;;;4972983;28;20781;-71
2023/09/10 06:05:39;;;;;;;8.90;8.10;;;;;;;;;;4972854;28;20564;-71
2023/09/10 06:08:05;;;;;;;9.60;8.60;;;;;;;;;;4972890;28;20543;-71
2023/09/10 06:10:31;;;;;;;10.20;7.50;;;;;;;;;;4972622;28;20417;-72
2023/09/10 06:12:57;;;;;;;12.40;7.33;;;;;;;;;;4973008;28;20413;-71
2023/09/10 06:15:23;;;;;;;9.33;8.17;;;;;;;;;;4972920;28;20416;-71
2023/09/10 06:17:48;;;;;;;6.97;6.37;;;;;;;;;;4972818;28;20495;-71
2023/09/10 06:20:14;;;;;;;14.03;7.40;;;;;;;;;;4972621;28;20409;-73
2023/09/10 06:22:40;;;;;;;14.60;9.43;;;;;;;;;;4973104;28;20409;-72
2023/09/10 06:25:07;;;;;;;10.00;9.00;;;;;;;;;;4972804;28;20949;-71
2023/09/10 06:27:33;;;;;;;11.73;10.10;;;;;;;;;;4972735;28;20848;-71
2023/09/10 06:29:59;;;;;;;11.43;10.33;;;;;;;;;;4976295;28;20413;-71
2023/09/10 06:32:24;;;;;;;12.93;9.80;;;;;;;;;;4976565;28;20835;-71
2023/09/10 06:34:50;;;;;;;8.00;7.30;;;;;;;;;;4976634;28;20869;-71
2023/09/10 06:37:16;;;;;;;9.93;8.77;;;;;;;;;;4976712;28;20464;-71
2023/09/10 06:39:42;;;;;;;11.43;9.70;;;;;;;;;;4976671;28;20424;-71
2023/09/10 06:42:11;;;;;;;8.90;8.10;;;;;;;;;;4976446;28;20423;-71
2023/09/10 06:44:38;;;;;;;8.77;7.90;;;;;;;;;;4976589;28;20464;-70
2023/09/10 06:47:04;;;;;;;9.27;8.37;;;;;;;;;;4976479;28;20428;-71
2023/09/10 06:49:30;;;;;;;9.63;8.70;;;;;;;;;;4976232;28;20440;-72
2023/09/10 06:51:56;;;;;;;12.23;9.20;;;;;;;;;;4976199;28;20405;-71
2023/09/10 06:54:23;;;;;;;9.70;8.77;;;;;;;;;;4976387;28;20769;-69
2023/09/10 06:56:49;;;;;;;10.57;9.47;;;;;;;;;;4991182;28;20447;-68
2023/09/10 06:59:14;;;;;;;10.33;9.33;;;;;;;;;;4995836;28;20773;-69
2023/09/10 07:01:41;;;;;;;9.53;7.30;;;;;;;;;;4995542;28;20515;-69
2023/09/10 07:04:17;;;;;;;9.00;8.10;;;;;;;;;;4995455;28;20490;-69
2023/09/10 07:06:43;;;;;;;10.30;9.10;;;;;;;;;;4995328;28;21061;-69
2023/09/10 07:09:10;;;;;;;9.40;8.50;;;;;;;;;;4995656;28;20408;-70
2023/09/10 07:11:36;;;;;;;9.73;8.80;;;;;;;;;;4995267;28;20412;-69
2023/09/10 07:14:02;;;;;;;10.37;9.30;;;;;;;;;;4995614;28;20904;-68
2023/09/10 07:16:28;;;;;;;8.87;7.97;;;;;;;;;;4995671;28;20486;-68
2023/09/10 07:18:54;;;;;;;10.03;9.10;;;;;;;;;;4995417;28;20502;-68
2023/09/10 07:21:20;;;;;;;13.13;8.53;;;;;;;;;;4995244;28;20503;-68
2023/09/10 07:23:46;;;;;;;9.60;8.70;;;;;;;;;;4995402;28;20455;-69
2023/09/10 07:26:12;;;;;;;10.67;8.97;;;;;;;;;;4995568;28;20438;-69
2023/09/10 07:28:38;;;;;;;9.90;9.00;;;;;;;;;;4995284;28;20458;-68
2023/09/10 07:31:04;;;;;;;9.50;8.60;;;;;;;;;;4994958;28;20487;-69
2023/09/10 07:33:30;;;;;;;9.47;8.57;;;;;;;;;;4995140;28;20451;-69
2023/09/10 07:35:56;;;;;;;10.13;9.13;;;;;;;;;;4995119;28;20430;-69
2023/09/10 07:38:22;;;;;;;8.77;7.97;;;;;;;;;;4995119;28;20832;-74
2023/09/10 07:40:48;;;;;;;10.60;9.17;;;;;;;;;;4994719;28;20412;-74
2023/09/10 07:43:14;;;;;;;13.20;8.97;;;;;;;;;;4994990;28;20911;-69
2023/09/10 07:45:40;;;;;;;12.97;9.40;;;;;;;;;;4995166;28;20404;-68
2023/09/10 07:48:06;;;;;;;9.73;8.73;;;;;;;;;;4994742;28;20446;-69
2023/09/10 07:50:32;;;;;;;11.13;8.80;;;;;;;;;;4994536;28;20630;-69
2023/09/10 07:52:58;;;;;;;8.20;7.40;;;;;;;;;;4994811;28;20411;-69
2023/09/10 07:55:25;;;;;;;11.03;9.93;;;;;;;;;;4994855;28;20424;-68
2023/09/10 07:57:51;;;;;;;8.63;7.83;;;;;;;;;;4994651;28;20459;-69
2023/09/10 08:00:17;;;;;;;9.13;8.00;;;;;;;;;;4994404;28;20416;-70
2023/09/10 08:02:43;;;;;;;9.30;8.40;;;;;;;;;;4994620;28;20914;-69
2023/09/10 08:05:09;;;;;;;13.43;8.77;;;;;;;;;;4994530;28;20518;-69
2023/09/10 08:07:35;;;;;;;11.30;9.37;;;;;;;;;;4994659;28;20451;-69
2023/09/10 08:10:01;;;;;;;10.43;9.53;;;;;;;;;;4994461;28;20417;-69
2023/09/10 08:12:28;;;;;;;10.03;9.00;;;;;;;;;;4994440;28;20443;-69
2023/09/10 08:14:53;;;;;;;10.23;9.33;;;;;;;;;;4994477;28;20416;-70
2023/09/10 08:17:19;;;;;;;8.40;7.20;;;;;;;;;;4994570;28;20509;-69
2023/09/10 08:19:45;;;;;;;9.43;8.47;;;;;;;;;;4994362;28;20420;-69
2023/09/10 08:22:11;;;;;;;9.37;8.47;;;;;;;;;;4994088;28;20507;-69
2023/09/10 08:24:37;;;;;;;8.63;7.90;;;;;;;;;;4994312;28;20259;-69
2023/09/10 08:27:03;;;;;;;9.00;7.67;;;;;;;;;;4994062;28;20200;-70
2023/09/10 08:29:30;;;;;;;9.73;8.83;;;;;;;;;;4992784;28;20204;-69
2023/09/10 08:31:57;;;;;;;8.40;7.77;;;;;;;;;;4993759;28;20404;-69
2023/09/10 08:34:23;;;;;;;9.33;8.40;;;;;;;;;;4994244;28;20781;-69
2023/09/10 08:36:49;;;;;;;9.30;8.40;;;;;;;;;;4994306;28;20438;-69
2023/09/10 08:39:15;;;;;;;10.00;9.00;;;;;;;;;;4995100;28;20412;-70
2023/09/10 08:41:46;;;;;;;9.30;8.40;;;;;;;;;;4994068;28;20408;-70
2023/09/10 08:44:17;;;;;;;10.70;8.50;;;;;;;;;;4994077;28;20287;-72
2023/09/10 08:46:43;;;;;;;8.20;7.40;;;;;;;;;;4994082;28;20783;-70
2023/09/10 08:49:11;;;;;;;9.57;8.63;;;;;;;;;;4993819;28;20930;-71
2023/09/10 08:51:37;;;;;;;9.83;8.73;;;;;;;;;;4992938;28;20415;-71
2023/09/10 08:54:03;;;;;;;10.43;8.87;;;;;;;;;;4993728;28;20420;-71
2023/09/10 08:56:29;;;;;;;9.10;7.70;;;;;;;;;;4993559;28;20444;-73
2023/09/10 08:58:56;;;;;;;12.40;8.63;;;;;;;;;;4993662;28;20828;-71
2023/09/10 09:01:23;;;;;;;11.13;9.10;;;;;;;;;;4993207;28;20420;-70
2023/09/10 09:03:49;;;;;;;10.63;9.40;;;;;;;;;;4993529;28;20485;-70
2023/09/10 09:06:15;;;;;;;9.70;8.70;;;;;;;;;;4993614;28;20447;-69
2023/09/10 09:08:45;;;;;;;10.27;8.23;;;;;;;;;;4993537;28;20414;-70
2023/09/10 09:11:13;;;;;;;9.23;8.33;;;;;;;;;;4993268;28;20419;-70
2023/09/10 09:13:40;;;;;;;12.43;8.60;;;;;;;;;;4993477;28;20431;-69
2023/09/10 09:16:06;;;;;;;10.00;9.00;;;;;;;;;;4993568;28;20424;-69
2023/09/10 09:18:34;;;;;;;10.03;9.03;;;;;;;;;;4993795;28;20420;-69
2023/09/10 09:21:03;;;;;;;9.50;8.37;;;;;;;;;;4993211;28;20438;-70
2023/09/10 09:23:30;;;;;;;12.40;8.67;;;;;;;;;;4976139;28;20479;-70
2023/09/10 09:25:56;;;;;;;9.33;7.27;;;;;;;;;;4993324;28;20409;-71
2023/09/10 09:28:23;;;;;;;9.50;8.50;;;;;;;;;;4993336;28;20404;-71
2023/09/10 09:30:49;;;;;;;8.43;7.40;;;;;;;;;;4993166;28;20423;-70
2023/09/10 09:33:15;;;;;;;13.23;7.77;;;;;;;;;;4993226;28;20447;-71
2023/09/10 09:35:41;;;;;;;8.73;7.90;;;;;;;;;;4993277;28;20447;-71
2023/09/10 09:38:10;;;;;;;10.67;7.43;;;;;;;;;;4993088;28;20435;-70
2023/09/10 09:40:36;;;;;;;9.43;8.30;;;;;;;;;;4993140;28;20459;-70
2023/09/10 09:43:02;;;;;;;10.63;7.67;;;;;;;;;;4993163;28;20404;-70
2023/09/10 09:45:29;;;;;;;10.07;8.80;;;;;;;;;;4993118;28;20501;-70
2023/09/10 09:47:55;;;;;;;10.40;7.10;;;;;;;;;;4993002;28;20443;-70
2023/09/10 09:50:21;;;;;;;7.57;6.87;;;;;;;;;;4993107;28;20427;-70
2023/09/10 09:52:51;;;;;;;9.33;8.10;;;;;;;;;;4993886;28;20502;-70
2023/09/10 09:55:17;;;;;;;9.30;8.00;;;;;;;;;;4993163;28;20501;-70
2023/09/10 09:57:46;;;;;;;9.80;7.70;;;;;;;;;;4993339;28;20468;-70
2023/09/10 10:00:12;;;;;;;8.90;7.23;;;;;;;;;;4993238;28;20424;-70
2023/09/10 10:02:44;;;;;;;10.73;7.50;;;;;;;;;;4992782;28;20422;-71
2023/09/10 10:05:11;;;;;;;9.70;8.40;;;;;;;;;;4991385;28;20468;-70
2023/09/10 10:07:37;;;;;;;11.23;8.17;;;;;;;;;;4992534;28;20790;-71
2023/09/10 10:10:07;;;;;;;8.57;7.50;;;;;;;;;;4992434;28;20407;-70
2023/09/10 10:12:33;;;;;;;6.77;6.17;;;;;;;;;;4992635;28;20419;-70
2023/09/10 10:15:00;;;;;;;13.23;8.87;;;;;;;;;;4992843;28;20459;-70
2023/09/10 10:17:26;;;;;;;9.53;8.03;;;;;;;;;;4992750;28;20955;-70
2023/09/10 10:19:53;;;;;;;10.80;7.53;;;;;;;;;;4992739;28;20420;-70
2023/09/10 10:22:20;;;;;;;7.70;6.33;;;;;;;;;;4992395;28;20442;-71
2023/09/10 10:24:46;;;;;;;7.70;7.00;;;;;;;;;;4992780;28;20503;-71
2023/09/10 10:27:14;;;;;;;7.67;7.00;;;;;;;;;;4992590;28;20428;-71
2023/09/10 10:29:40;;;;;;;8.50;7.80;;;;;;;;;;4992857;28;20408;-71
2023/09/10 10:32:10;;;;;;;8.93;8.13;;;;;;;;;;4992772;28;20466;-70
2023/09/10 10:34:38;;;;;;;11.03;8.90;;;;;;;;;;4993206;28;20787;-70
2023/09/10 10:37:15;;;;;;;9.50;8.53;;;;;;;;;;4992717;28;20435;-69
2023/09/10 10:39:50;;;;;;;7.50;6.80;;;;;;;;;;4993602;28;20447;-69
2023/09/10 10:42:18;;;;;;;8.60;7.77;;;;;;;;;;4993116;28;20450;-69
2023/09/10 10:44:44;;;;;;;10.23;7.97;;;;;;;;;;4993383;28;20468;-69
2023/09/10 10:47:18;;;;;;;8.77;7.97;;;;;;;;;;4993463;28;20490;-69
2023/09/10 10:49:51;;;;;;;8.67;7.90;;;;;;;;;;4993443;28;20419;-69
2023/09/10 10:52:19;;;;;;;7.97;7.23;;;;;;;;;;4993235;28;20408;-69
2023/09/10 10:54:45;;;;;;;9.80;8.97;;;;;;;;;;4993389;28;20419;-69
2023/09/10 10:57:11;;;;;;;13.33;9.00;;;;;;;;;;4993594;28;20498;-66
2023/09/10 10:59:38;;;;;;;8.80;8.00;;;;;;;;;;4993363;28;20412;-69
2023/09/10 11:02:10;;;;;;;8.53;7.73;;;;;;;;;;4993082;28;20455;-69
2023/09/10 11:04:36;;;;;;;8.40;7.70;;;;;;;;;;4993594;28;20498;-69
2023/09/10 11:07:18;;;;;;;9.27;8.40;;;;;;;;;;4995005;28;20447;-69
2023/09/10 11:09:46;;;;;;;8.93;8.03;;;;;;;;;;4996212;28;20454;-69
2023/09/10 11:12:13;;;;;;;9.10;8.30;;;;;;;;;;4995666;28;20445;-69
2023/09/10 11:14:58;;;;;;;10.03;9.03;;;;;;;;;;4996772;28;20420;-69
2023/09/10 11:17:24;;;;;;;10.67;8.03;;;;;;;;;;4997016;28;20458;-69
2023/09/10 11:19:50;;;;;;;9.23;8.00;;;;;;;;;;4996992;28;20416;-69
2023/09/10 11:22:16;;;;;;;9.43;8.43;;;;;;;;;;4996553;28;20446;-69
2023/09/10 11:24:42;;;;;;;7.57;6.97;;;;;;;;;;4996586;28;20471;-69
2023/09/10 11:27:19;;;;;;;8.40;7.60;;;;;;;;;;4996671;28;20439;-69
2023/09/10 11:29:44;;;;;;;8.60;7.87;;;;;;;;;;4996724;28;20439;-67
2023/09/10 11:32:19;;;;;;;9.00;8.30;;;;;;;;;;4996494;28;20852;-68
2023/09/10 11:34:45;;;;;;;7.67;6.87;;;;;;;;;;4997075;28;20418;-69
2023/09/10 11:37:11;;;;;;;7.80;7.00;;;;;;;;;;4996994;28;20436;-72
2023/09/10 11:39:37;;;;;;;8.67;7.97;;;;;;;;;;4987717;28;20661;-72
2023/09/10 11:42:04;;;;;;;10.50;8.00;;;;;;;;;;4975331;28;20974;-69
2023/09/10 11:44:30;;;;;;;8.43;7.73;;;;;;;;;;4975015;28;20468;-71
2023/09/10 11:46:57;;;;;;;8.40;7.70;;;;;;;;;;4975355;28;20459;-71
2023/09/10 11:49:23;;;;;;;7.57;6.83;;;;;;;;;;4975084;28;20431;-72
2023/09/10 11:51:50;;;;;;;7.63;7.00;;;;;;;;;;4970205;28;20441;-70
2023/09/10 11:54:17;;;;;;;8.70;7.80;;;;;;;;;;4972039;28;20447;-71
2023/09/10 11:56:53;;;;;;;8.60;7.80;;;;;;;;;;4970084;28;20456;-71
2023/09/10 11:59:25;;;;;;;8.30;7.60;;;;;;;;;;4970720;28;20551;-71
2023/09/10 12:01:55;;;;;;;9.93;7.30;;;;;;;;;;4959420;28;20838;-71
2023/09/10 12:04:26;;;;;;;8.30;7.60;;;;;;;;;;4966545;28;20472;-71
2023/09/10 12:06:52;;;;;;;8.20;7.40;;;;;;;;;;4994912;23;20464;-69
2023/09/10 12:09:18;;;;;;;9.30;7.80;;;;;;;;;;5009431;28;20840;-69
2023/09/10 12:11:45;;;;;;;8.07;7.40;;;;;;;;;;5007760;28;20426;-70
2023/09/10 12:14:12;;;;;;;7.53;6.97;;;;;;;;;;5009975;28;20434;-70
2023/09/10 12:16:38;;;;;;;7.93;7.27;;;;;;;;;;5007611;28;20427;-70
2023/09/10 12:19:04;;;;;;;6.70;6.20;;;;;;;;;;4993306;28;20447;-70
2023/09/10 12:21:30;;;;;;;8.03;7.43;;;;;;;;;;5001721;28;20426;-70
2023/09/10 12:23:56;;;;;;;9.27;8.57;;;;;;;;;;4989308;28;21101;-70
2023/09/10 12:26:22;;;;;;;9.60;7.30;;;;;;;;;;4991032;28;20439;-69
2023/09/10 12:28:52;;;;;;;8.00;7.20;;;;;;;;;;4989826;28;20443;-69
2023/09/10 12:31:18;;;;;;;7.67;6.97;;;;;;;;;;4987618;28;20427;-69
2023/09/10 12:33:45;;;;;;;8.07;7.27;;;;;;;;;;4980810;28;20497;-69
2023/09/10 12:36:12;;;;;;;8.20;7.47;;;;;;;;;;4986665;28;20463;-69
2023/09/10 12:38:37;;;;;;;8.53;7.77;;;;;;;;;;4984713;28;20459;-69
2023/09/10 12:41:04;;;;;;;7.30;6.60;;;;;;;;;;4979870;28;20472;-69
2023/09/10 12:43:30;;;;;;;7.57;6.87;;;;;;;;;;4988801;28;20219;-69
2023/09/10 12:45:56;;;;;;;7.63;6.83;;;;;;;;;;5009497;28;20430;-69
2023/09/10 12:48:22;;;;;;;8.57;7.40;;;;;;;;;;5002193;28;20443;-69
2023/09/10 12:50:49;;;;;;;8.17;6.53;;;;;;;;;;4990021;28;20432;-69
2023/09/10 12:53:15;;;;;;;7.43;6.73;;;;;;;;;;4990279;28;20424;-69
2023/09/10 12:55:42;;;;;;;8.17;7.53;;;;;;;;;;4991304;28;20969;-69
2023/09/10 12:58:11;;;;;;;8.27;7.57;;;;;;;;;;4973469;28;20829;-69
2023/09/10 13:00:37;;;;;;;8.37;7.63;;;;;;;;;;4986341;28;20799;-70
2023/09/10 13:03:03;;;;;;;8.27;7.43;;;;;;;;;;4989275;28;20458;-69
2023/09/10 13:05:29;;;;;;;8.63;7.80;;;;;;;;;;4989529;28;21135;-69
2023/09/10 13:07:55;;;;;;;8.40;7.60;;;;;;;;;;5000761;28;20466;-69
2023/09/10 13:10:21;;;;;;;7.33;6.73;;;;;;;;;;4989380;28;20181;-69
2023/09/10 13:12:47;;;;;;;8.20;7.40;;;;;;;;;;4978205;28;20853;-69
2023/09/10 13:15:15;;;;;;;11.13;6.37;;;;;;;;;;4976914;28;20439;-69
2023/09/10 13:17:41;;;;;;;7.73;7.03;;;;;;;;;;4985341;28;20467;-69
2023/09/10 13:20:07;;;;;;;7.57;6.87;;;;;;;;;;4989617;28;20527;-69
2023/09/10 13:22:33;;;;;;;9.30;8.40;;;;;;;;;;5007696;28;20886;-69
2023/09/10 13:24:59;;;;;;;7.60;7.00;;;;;;;;;;4995035;28;20482;-70
2023/09/10 13:27:27;;;;;;;7.00;6.40;;;;;;;;;;4979016;28;21025;-70
2023/09/10 13:29:53;;;;;;;8.50;7.73;;;;;;;;;;4976039;28;20189;-69
2023/09/10 13:32:19;;;;;;;8.07;7.37;;;;;;;;;;4973443;28;20939;-69
2023/09/10 13:34:46;;;;;;;8.23;7.43;;;;;;;;;;4971129;28;20432;-71
2023/09/10 13:37:11;;;;;;;7.47;6.77;;;;;;;;;;4975388;28;20452;-70
2023/09/10 13:39:37;;;;;;;7.20;6.60;;;;;;;;;;4989606;28;20432;-70
2023/09/10 13:42:04;;;;;;;8.17;7.47;;;;;;;;;;4984398;28;20438;-70
2023/09/10 13:44:31;;;;;;;8.07;7.37;;;;;;;;;;4987412;28;20474;-70
2023/09/10 13:46:57;;;;;;;8.10;7.43;;;;;;;;;;4984348;28;20527;-70
2023/09/10 13:49:23;;;;;;;6.97;6.43;;;;;;;;;;4985716;28;20444;-70
2023/09/10 13:51:49;;;;;;;8.87;6.60;;;;;;;;;;4988187;28;20462;-70
2023/09/10 13:54:15;;;;;;;8.13;7.23;;;;;;;;;;4985848;28;20444;-70
2023/09/10 13:56:41;;;;;;;7.53;6.83;;;;;;;;;;4982300;28;20196;-71
2023/09/10 13:59:07;;;;;;;9.20;7.23;;;;;;;;;;4987194;28;20451;-71
2023/09/10 14:01:33;;;;;;;6.60;6.10;;;;;;;;;;4989208;28;20428;-70
2023/09/10 14:04:00;;;;;;;8.20;7.47;;;;;;;;;;4986913;28;20550;-70
2023/09/10 14:06:26;;;;;;;8.03;7.20;;;;;;;;;;4987040;28;20483;-70
2023/09/10 14:08:52;;;;;;;7.70;6.37;;;;;;;;;;4987310;28;20497;-70
2023/09/10 14:11:19;;;;;;;8.10;7.47;;;;;;;;;;4984661;28;20454;-70
2023/09/10 14:13:45;;;;;;;7.80;7.10;;;;;;;;;;4987661;28;20478;-70
2023/09/10 14:16:11;;;;;;;8.27;7.67;;;;;;;;;;4983796;28;20490;-70
2023/09/10 14:18:39;;;;;;;8.70;8.00;;;;;;;;;;4974681;28;20472;-70
2023/09/10 14:21:05;;;;;;;10.87;8.20;;;;;;;;;;4987637;28;20428;-71
2023/09/10 14:23:31;;;;;;;9.00;7.10;;;;;;;;;;4988811;28;20511;-70
2023/09/10 14:26:00;;;;;;;10.20;7.50;;;;;;;;;;4986849;28;20196;-70
2023/09/10 14:28:26;;;;;;;7.43;6.73;;;;;;;;;;4987234;28;20455;-69
2023/09/10 14:30:53;;;;;;;7.97;7.27;;;;;;;;;;4985767;28;20435;-70
2023/09/10 14:33:19;;;;;;;8.50;7.70;;;;;;;;;;4987328;28;20432;-69
2023/09/10 14:35:45;;;;;;;8.67;7.87;;;;;;;;;;4986943;28;20947;-70